7XS9 weather

Pearce Industries Heliport
Houston, Texas, United States

Public forecast

Using degrees Fahrenheit for public forecast. Weather courtesy of forecast.io.

METAR (pilot weather report)

Closest report is Houston Southwest Airport, 8.7 nm (16.1 km) S. Retrieved 2019/07/20 08:35 UTC (0 seconds ago):

KAXH 200835Z AUTO 00000KT 3SM BR CLR 24/24 A2997 RMK AO2 T02360236

TAF (pilot weather forecast)

Closest forecast is William P Hobby Airport, 9.5 nm (17.6 km) E. Retrieved 2019/07/20 06:27 UTC (2 hours ago):

TAF KHOU 200524Z 2006/2106 16006KT P6SM FEW020 SCT250 FM201600 18011KT P6SM VCSH FEW025 SCT040 FM202100 16012KT P6SM FEW040 FM210200 18006KT P6SM FEW020 SCT250